sensor_id;sensor_type;location;lat;lon;timestamp;P1;durP1;ratioP1;P2;durP2;ratioP2
15848;SDS011;8024;48.708;9.394;2022-08-18T00:01:15;9.43;;;8.63;;
15848;SDS011;8024;48.708;9.394;2022-08-18T00:03:42;9.70;;;8.87;;
15848;SDS011;8024;48.708;9.394;2022-08-18T00:06:10;8.97;;;8.27;;
15848;SDS011;8024;48.708;9.394;2022-08-18T00:08:37;9.87;;;8.90;;
15848;SDS011;8024;48.708;9.394;2022-08-18T00:11:06;9.03;;;8.13;;
15848;SDS011;8024;48.708;9.394;2022-08-18T00:13:33;9.33;;;8.53;;
15848;SDS011;8024;48.708;9.394;2022-08-18T00:16:01;9.63;;;8.83;;
15848;SDS011;8024;48.708;9.394;2022-08-18T00:18:28;10.73;;;9.83;;
15848;SDS011;8024;48.708;9.394;2022-08-18T00:20:55;8.90;;;8.20;;
15848;SDS011;8024;48.708;9.394;2022-08-18T00:23:23;9.77;;;8.97;;
15848;SDS011;8024;48.708;9.394;2022-08-18T00:25:53;10.47;;;9.57;;
15848;SDS011;8024;48.708;9.394;2022-08-18T00:28:23;9.60;;;8.80;;
15848;SDS011;8024;48.708;9.394;2022-08-18T00:30:50;10.27;;;9.27;;
15848;SDS011;8024;48.708;9.394;2022-08-18T00:33:17;10.07;;;9.27;;
15848;SDS011;8024;48.708;9.394;2022-08-18T00:35:44;10.13;;;9.43;;
15848;SDS011;8024;48.708;9.394;2022-08-18T00:38:11;11.13;;;10.03;;
15848;SDS011;8024;48.708;9.394;2022-08-18T00:40:39;10.37;;;9.43;;
15848;SDS011;8024;48.708;9.394;2022-08-18T00:43:11;10.20;;;9.30;;
15848;SDS011;8024;48.708;9.394;2022-08-18T00:45:42;9.23;;;8.53;;
15848;SDS011;8024;48.708;9.394;2022-08-18T00:48:11;10.27;;;9.37;;
15848;SDS011;8024;48.708;9.394;2022-08-18T00:50:39;9.53;;;8.67;;
15848;SDS011;8024;48.708;9.394;2022-08-18T00:53:11;10.60;;;9.60;;
15848;SDS011;8024;48.708;9.394;2022-08-18T00:55:41;9.63;;;8.87;;
15848;SDS011;8024;48.708;9.394;2022-08-18T00:58:13;10.30;;;9.30;;
15848;SDS011;8024;48.708;9.394;2022-08-18T01:00:51;9.37;;;8.47;;
15848;SDS011;8024;48.708;9.394;2022-08-18T01:03:19;9.20;;;8.50;;
15848;SDS011;8024;48.708;9.394;2022-08-18T01:05:49;8.70;;;7.80;;
15848;SDS011;8024;48.708;9.394;2022-08-18T01:08:20;8.53;;;7.83;;
15848;SDS011;8024;48.708;9.394;2022-08-18T01:10:47;9.47;;;8.57;;
15848;SDS011;8024;48.708;9.394;2022-08-18T01:13:15;10.13;;;9.23;;
15848;SDS011;8024;48.708;9.394;2022-08-18T01:15:43;9.87;;;9.03;;
15848;SDS011;8024;48.708;9.394;2022-08-18T01:18:12;11.27;;;10.20;;
15848;SDS011;8024;48.708;9.394;2022-08-18T01:20:58;10.30;;;9.40;;
15848;SDS011;8024;48.708;9.394;2022-08-18T01:23:49;12.60;;;11.40;;
15848;SDS011;8024;48.708;9.394;2022-08-18T01:26:18;11.27;;;10.17;;
15848;SDS011;8024;48.708;9.394;2022-08-18T01:28:46;11.10;;;10.20;;
15848;SDS011;8024;48.708;9.394;2022-08-18T01:31:28;11.53;;;10.43;;
15848;SDS011;8024;48.708;9.394;2022-08-18T01:33:58;11.70;;;10.07;;
15848;SDS011;8024;48.708;9.394;2022-08-18T01:36:26;12.03;;;10.93;;
15848;SDS011;8024;48.708;9.394;2022-08-18T01:38:55;11.47;;;10.43;;
15848;SDS011;8024;48.708;9.394;2022-08-18T01:41:23;11.87;;;10.77;;
15848;SDS011;8024;48.708;9.394;2022-08-18T01:43:50;11.00;;;10.00;;
15848;SDS011;8024;48.708;9.394;2022-08-18T01:46:18;12.10;;;11.00;;
15848;SDS011;8024;48.708;9.394;2022-08-18T01:48:46;11.70;;;10.60;;
15848;SDS011;8024;48.708;9.394;2022-08-18T01:51:14;10.73;;;9.73;;
15848;SDS011;8024;48.708;9.394;2022-08-18T01:53:43;11.90;;;10.80;;
15848;SDS011;8024;48.708;9.394;2022-08-18T01:56:13;12.17;;;11.17;;
15848;SDS011;8024;48.708;9.394;2022-08-18T01:58:42;11.83;;;10.70;;
15848;SDS011;8024;48.708;9.394;2022-08-18T02:01:11;11.67;;;10.63;;
15848;SDS011;8024;48.708;9.394;2022-08-18T02:03:40;10.97;;;10.07;;
15848;SDS011;8024;48.708;9.394;2022-08-18T02:06:12;12.00;;;11.10;;
15848;SDS011;8024;48.708;9.394;2022-08-18T02:08:42;11.37;;;10.37;;
15848;SDS011;8024;48.708;9.394;2022-08-18T02:11:09;11.30;;;10.20;;
15848;SDS011;8024;48.708;9.394;2022-08-18T02:13:38;11.83;;;10.63;;
15848;SDS011;8024;48.708;9.394;2022-08-18T02:16:05;11.30;;;10.30;;
15848;SDS011;8024;48.708;9.394;2022-08-18T02:18:33;10.40;;;9.57;;
15848;SDS011;8024;48.708;9.394;2022-08-18T02:21:04;11.97;;;10.80;;
15848;SDS011;8024;48.708;9.394;2022-08-18T02:23:33;11.30;;;10.20;;
15848;SDS011;8024;48.708;9.394;2022-08-18T02:26:02;10.40;;;9.53;;
15848;SDS011;8024;48.708;9.394;2022-08-18T02:28:30;10.77;;;9.87;;
15848;SDS011;8024;48.708;9.394;2022-08-18T02:31:03;12.03;;;10.83;;
15848;SDS011;8024;48.708;9.394;2022-08-18T02:33:31;10.83;;;9.77;;
15848;SDS011;8024;48.708;9.394;2022-08-18T02:35:59;11.40;;;10.37;;
15848;SDS011;8024;48.708;9.394;2022-08-18T02:38:27;12.20;;;11.10;;
15848;SDS011;8024;48.708;9.394;2022-08-18T02:40:55;12.13;;;10.93;;
15848;SDS011;8024;48.708;9.394;2022-08-18T02:43:24;12.97;;;11.77;;
15848;SDS011;8024;48.708;9.394;2022-08-18T02:45:51;11.43;;;10.50;;
15848;SDS011;8024;48.708;9.394;2022-08-18T02:48:19;12.93;;;11.80;;
15848;SDS011;8024;48.708;9.394;2022-08-18T02:50:49;12.20;;;11.10;;
15848;SDS011;8024;48.708;9.394;2022-08-18T02:53:24;12.43;;;11.27;;
15848;SDS011;8024;48.708;9.394;2022-08-18T02:55:52;13.10;;;11.97;;
15848;SDS011;8024;48.708;9.394;2022-08-18T02:58:20;11.60;;;10.60;;
15848;SDS011;8024;48.708;9.394;2022-08-18T03:00:47;12.23;;;11.03;;
15848;SDS011;8024;48.708;9.394;2022-08-18T03:03:14;12.33;;;11.13;;
15848;SDS011;8024;48.708;9.394;2022-08-18T03:05:43;11.80;;;10.60;;
15848;SDS011;8024;48.708;9.394;2022-08-18T03:08:11;11.73;;;10.63;;
15848;SDS011;8024;48.708;9.394;2022-08-18T03:10:38;11.97;;;10.87;;
15848;SDS011;8024;48.708;9.394;2022-08-18T03:13:05;12.17;;;11.07;;
15848;SDS011;8024;48.708;9.394;2022-08-18T03:15:32;9.73;;;8.87;;
15848;SDS011;8024;48.708;9.394;2022-08-18T03:18:00;10.77;;;9.67;;
15848;SDS011;8024;48.708;9.394;2022-08-18T03:20:27;8.97;;;8.17;;
15848;SDS011;8024;48.708;9.394;2022-08-18T03:22:55;9.53;;;8.63;;
15848;SDS011;8024;48.708;9.394;2022-08-18T03:25:23;8.73;;;7.93;;
15848;SDS011;8024;48.708;9.394;2022-08-18T03:27:50;9.47;;;8.60;;
15848;SDS011;8024;48.708;9.394;2022-08-18T03:30:17;10.27;;;9.23;;
15848;SDS011;8024;48.708;9.394;2022-08-18T03:32:44;10.30;;;9.13;;
15848;SDS011;8024;48.708;9.394;2022-08-18T03:35:12;10.60;;;9.63;;
15848;SDS011;8024;48.708;9.394;2022-08-18T03:37:39;10.63;;;9.43;;
15848;SDS011;8024;48.708;9.394;2022-08-18T03:40:09;10.13;;;9.17;;
15848;SDS011;8024;48.708;9.394;2022-08-18T03:42:36;10.97;;;9.67;;
15848;SDS011;8024;48.708;9.394;2022-08-18T03:45:04;9.43;;;8.53;;
15848;SDS011;8024;48.708;9.394;2022-08-18T03:47:32;9.67;;;8.77;;
15848;SDS011;8024;48.708;9.394;2022-08-18T03:49:59;10.57;;;9.67;;
15848;SDS011;8024;48.708;9.394;2022-08-18T03:52:27;9.93;;;9.07;;
15848;SDS011;8024;48.708;9.394;2022-08-18T03:54:54;10.70;;;9.60;;
15848;SDS011;8024;48.708;9.394;2022-08-18T03:57:23;11.63;;;10.63;;
15848;SDS011;8024;48.708;9.394;2022-08-18T03:59:50;10.97;;;9.97;;
15848;SDS011;8024;48.708;9.394;2022-08-18T04:02:18;11.30;;;10.30;;
15848;SDS011;8024;48.708;9.394;2022-08-18T04:04:46;11.17;;;10.17;;
15848;SDS011;8024;48.708;9.394;2022-08-18T04:07:13;10.70;;;9.70;;
15848;SDS011;8024;48.708;9.394;2022-08-18T04:09:42;10.60;;;9.70;;
15848;SDS011;8024;48.708;9.394;2022-08-18T04:12:10;10.53;;;9.33;;
15848;SDS011;8024;48.708;9.394;2022-08-18T04:14:41;10.40;;;9.60;;
15848;SDS011;8024;48.708;9.394;2022-08-18T04:17:11;10.77;;;9.87;;
15848;SDS011;8024;48.708;9.394;2022-08-18T04:19:39;10.90;;;9.90;;
15848;SDS011;8024;48.708;9.394;2022-08-18T04:22:06;10.07;;;9.07;;
15848;SDS011;8024;48.708;9.394;2022-08-18T04:24:34;9.63;;;8.70;;
15848;SDS011;8024;48.708;9.394;2022-08-18T04:27:02;9.30;;;8.50;;
15848;SDS011;8024;48.708;9.394;2022-08-18T04:29:29;7.70;;;7.00;;
15848;SDS011;8024;48.708;9.394;2022-08-18T04:31:59;8.90;;;8.20;;
15848;SDS011;8024;48.708;9.394;2022-08-18T04:34:28;8.73;;;7.83;;
15848;SDS011;8024;48.708;9.394;2022-08-18T04:36:57;8.40;;;7.70;;
15848;SDS011;8024;48.708;9.394;2022-08-18T04:39:26;8.23;;;7.47;;
15848;SDS011;8024;48.708;9.394;2022-08-18T04:41:54;7.97;;;7.27;;
15848;SDS011;8024;48.708;9.394;2022-08-18T04:44:21;8.07;;;7.37;;
15848;SDS011;8024;48.708;9.394;2022-08-18T04:46:49;7.77;;;7.17;;
15848;SDS011;8024;48.708;9.394;2022-08-18T04:49:22;8.60;;;7.80;;
15848;SDS011;8024;48.708;9.394;2022-08-18T04:51:51;7.80;;;7.07;;
15848;SDS011;8024;48.708;9.394;2022-08-18T04:54:37;7.50;;;6.80;;
15848;SDS011;8024;48.708;9.394;2022-08-18T04:57:06;7.80;;;7.10;;
15848;SDS011;8024;48.708;9.394;2022-08-18T04:59:35;7.87;;;7.10;;
15848;SDS011;8024;48.708;9.394;2022-08-18T05:02:04;7.80;;;7.10;;
15848;SDS011;8024;48.708;9.394;2022-08-18T05:04:34;7.17;;;6.30;;
15848;SDS011;8024;48.708;9.394;2022-08-18T05:07:03;7.37;;;6.80;;
15848;SDS011;8024;48.708;9.394;2022-08-18T05:09:30;7.37;;;6.67;;
15848;SDS011;8024;48.708;9.394;2022-08-18T05:11:57;8.10;;;7.40;;
15848;SDS011;8024;48.708;9.394;2022-08-18T05:14:26;8.23;;;7.63;;
15848;SDS011;8024;48.708;9.394;2022-08-18T05:16:56;8.33;;;7.50;;
15848;SDS011;8024;48.708;9.394;2022-08-18T05:19:24;9.20;;;8.40;;
15848;SDS011;8024;48.708;9.394;2022-08-18T05:21:53;8.70;;;7.93;;
15848;SDS011;8024;48.708;9.394;2022-08-18T05:24:22;8.33;;;7.53;;
15848;SDS011;8024;48.708;9.394;2022-08-18T05:26:50;8.17;;;7.37;;
15848;SDS011;8024;48.708;9.394;2022-08-18T05:29:18;7.70;;;6.83;;
15848;SDS011;8024;48.708;9.394;2022-08-18T05:31:46;7.47;;;6.87;;
15848;SDS011;8024;48.708;9.394;2022-08-18T05:34:14;8.27;;;7.37;;
15848;SDS011;8024;48.708;9.394;2022-08-18T05:36:46;7.00;;;6.50;;
15848;SDS011;8024;48.708;9.394;2022-08-18T05:39:24;6.53;;;6.03;;
15848;SDS011;8024;48.708;9.394;2022-08-18T05:41:57;6.73;;;6.13;;
15848;SDS011;8024;48.708;9.394;2022-08-18T05:44:31;6.73;;;6.00;;
15848;SDS011;8024;48.708;9.394;2022-08-18T05:47:02;7.20;;;6.50;;
15848;SDS011;8024;48.708;9.394;2022-08-18T05:49:32;6.93;;;6.33;;
15848;SDS011;8024;48.708;9.394;2022-08-18T05:52:04;7.63;;;6.90;;
15848;SDS011;8024;48.708;9.394;2022-08-18T05:54:35;7.80;;;7.07;;
15848;SDS011;8024;48.708;9.394;2022-08-18T05:57:21;7.07;;;6.37;;
15848;SDS011;8024;48.708;9.394;2022-08-18T05:59:52;7.97;;;7.17;;
15848;SDS011;8024;48.708;9.394;2022-08-18T06:02:23;7.87;;;7.07;;
15848;SDS011;8024;48.708;9.394;2022-08-18T06:04:57;7.73;;;6.80;;
15848;SDS011;8024;48.708;9.394;2022-08-18T06:07:30;7.97;;;6.20;;
15848;SDS011;8024;48.708;9.394;2022-08-18T06:10:01;7.93;;;7.13;;
15848;SDS011;8024;48.708;9.394;2022-08-18T06:12:31;7.03;;;6.43;;
15848;SDS011;8024;48.708;9.394;2022-08-18T06:15:02;7.67;;;6.97;;
15848;SDS011;8024;48.708;9.394;2022-08-18T06:17:36;7.57;;;6.97;;
15848;SDS011;8024;48.708;9.394;2022-08-18T06:20:14;7.93;;;7.13;;
15848;SDS011;8024;48.708;9.394;2022-08-18T06:22:53;7.40;;;6.70;;
15848;SDS011;8024;48.708;9.394;2022-08-18T06:25:29;8.20;;;6.80;;
15848;SDS011;8024;48.708;9.394;2022-08-18T06:28:02;7.57;;;6.97;;
15848;SDS011;8024;48.708;9.394;2022-08-18T06:30:39;8.40;;;7.70;;
15848;SDS011;8024;48.708;9.394;2022-08-18T06:33:11;8.57;;;6.27;;
15848;SDS011;8024;48.708;9.394;2022-08-18T06:35:48;7.97;;;7.27;;
15848;SDS011;8024;48.708;9.394;2022-08-18T06:38:32;7.73;;;7.10;;
15848;SDS011;8024;48.708;9.394;2022-08-18T06:41:09;8.43;;;7.67;;
15848;SDS011;8024;48.708;9.394;2022-08-18T06:43:53;7.93;;;7.23;;
15848;SDS011;8024;48.708;9.394;2022-08-18T06:46:27;7.37;;;6.80;;
15848;SDS011;8024;48.708;9.394;2022-08-18T06:49:01;7.43;;;6.73;;
15848;SDS011;8024;48.708;9.394;2022-08-18T06:51:30;7.13;;;6.57;;
15848;SDS011;8024;48.708;9.394;2022-08-18T06:54:00;7.40;;;6.73;;
15848;SDS011;8024;48.708;9.394;2022-08-18T06:56:33;8.27;;;7.57;;
15848;SDS011;8024;48.708;9.394;2022-08-18T06:59:16;8.20;;;7.43;;
15848;SDS011;8024;48.708;9.394;2022-08-18T07:01:47;7.90;;;7.20;;
15848;SDS011;8024;48.708;9.394;2022-08-18T07:07:29;8.70;;;7.80;;
15848;SDS011;8024;48.708;9.394;2022-08-18T07:10:00;8.43;;;7.63;;
15848;SDS011;8024;48.708;9.394;2022-08-18T07:12:28;8.30;;;7.40;;
15848;SDS011;8024;48.708;9.394;2022-08-18T07:14:57;10.43;;;7.77;;
15848;SDS011;8024;48.708;9.394;2022-08-18T07:17:27;6.97;;;6.37;;
15848;SDS011;8024;48.708;9.394;2022-08-18T07:19:56;8.30;;;7.70;;
15848;SDS011;8024;48.708;9.394;2022-08-18T07:22:32;8.80;;;7.57;;
15848;SDS011;8024;48.708;9.394;2022-08-18T07:25:21;9.33;;;8.43;;
15848;SDS011;8024;48.708;9.394;2022-08-18T07:27:52;9.00;;;8.20;;
15848;SDS011;8024;48.708;9.394;2022-08-18T07:30:26;8.03;;;7.43;;
15848;SDS011;8024;48.708;9.394;2022-08-18T07:32:57;7.83;;;7.23;;
15848;SDS011;8024;48.708;9.394;2022-08-18T07:35:31;8.83;;;8.07;;
15848;SDS011;8024;48.708;9.394;2022-08-18T07:38:03;8.03;;;7.23;;
15848;SDS011;8024;48.708;9.394;2022-08-18T07:40:42;9.17;;;8.27;;
15848;SDS011;8024;48.708;9.394;2022-08-18T07:43:15;8.47;;;7.77;;
15848;SDS011;8024;48.708;9.394;2022-08-18T07:45:47;8.07;;;7.33;;
15848;SDS011;8024;48.708;9.394;2022-08-18T07:48:15;7.43;;;6.80;;
15848;SDS011;8024;48.708;9.394;2022-08-18T07:50:45;7.40;;;6.80;;
15848;SDS011;8024;48.708;9.394;2022-08-18T07:53:31;7.60;;;6.83;;
15848;SDS011;8024;48.708;9.394;2022-08-18T07:56:10;7.70;;;7.10;;
15848;SDS011;8024;48.708;9.394;2022-08-18T07:58:46;8.10;;;7.40;;
15848;SDS011;8024;48.708;9.394;2022-08-18T08:01:20;8.73;;;7.37;;
15848;SDS011;8024;48.708;9.394;2022-08-18T08:03:55;7.33;;;6.73;;
15848;SDS011;8024;48.708;9.394;2022-08-18T08:06:30;6.70;;;5.97;;
15848;SDS011;8024;48.708;9.394;2022-08-18T08:09:03;7.27;;;6.67;;
15848;SDS011;8024;48.708;9.394;2022-08-18T08:11:40;7.27;;;6.67;;
15848;SDS011;8024;48.708;9.394;2022-08-18T08:14:23;7.27;;;6.53;;
15848;SDS011;8024;48.708;9.394;2022-08-18T08:17:02;7.47;;;6.87;;
15848;SDS011;8024;48.708;9.394;2022-08-18T08:19:39;7.57;;;6.97;;
15848;SDS011;8024;48.708;9.394;2022-08-18T08:22:18;8.30;;;7.60;;
15848;SDS011;8024;48.708;9.394;2022-08-18T08:24:55;8.53;;;7.83;;
15848;SDS011;8024;48.708;9.394;2022-08-18T08:27:34;8.17;;;7.47;;
15848;SDS011;8024;48.708;9.394;2022-08-18T08:30:12;8.13;;;7.43;;
15848;SDS011;8024;48.708;9.394;2022-08-18T08:32:43;7.73;;;6.73;;
15848;SDS011;8024;48.708;9.394;2022-08-18T08:35:25;10.20;;;8.50;;
15848;SDS011;8024;48.708;9.394;2022-08-18T08:38:02;11.17;;;7.73;;
15848;SDS011;8024;48.708;9.394;2022-08-18T08:40:42;9.90;;;9.10;;
15848;SDS011;8024;48.708;9.394;2022-08-18T08:43:19;8.87;;;8.07;;
15848;SDS011;8024;48.708;9.394;2022-08-18T08:45:51;9.20;;;8.37;;
15848;SDS011;8024;48.708;9.394;2022-08-18T08:48:26;10.13;;;8.20;;
15848;SDS011;8024;48.708;9.394;2022-08-18T08:50:57;8.83;;;7.97;;
15848;SDS011;8024;48.708;9.394;2022-08-18T08:53:26;9.40;;;8.13;;
15848;SDS011;8024;48.708;9.394;2022-08-18T08:55:58;10.37;;;7.83;;
15848;SDS011;8024;48.708;9.394;2022-08-18T08:58:30;8.20;;;7.60;;
15848;SDS011;8024;48.708;9.394;2022-08-18T09:01:00;9.20;;;7.00;;
15848;SDS011;8024;48.708;9.394;2022-08-18T09:03:32;7.20;;;6.60;;
15848;SDS011;8024;48.708;9.394;2022-08-18T09:06:13;8.37;;;7.57;;
15848;SDS011;8024;48.708;9.394;2022-08-18T09:14:45;8.40;;;7.70;;
15848;SDS011;8024;48.708;9.394;2022-08-18T09:17:26;10.73;;;9.00;;
15848;SDS011;8024;48.708;9.394;2022-08-18T09:20:09;8.77;;;7.90;;
15848;SDS011;8024;48.708;9.394;2022-08-18T09:22:47;9.23;;;8.40;;
15848;SDS011;8024;48.708;9.394;2022-08-18T09:25:32;8.43;;;7.70;;
15848;SDS011;8024;48.708;9.394;2022-08-18T09:28:10;8.60;;;7.90;;
15848;SDS011;8024;48.708;9.394;2022-08-18T09:30:42;9.70;;;8.73;;
15848;SDS011;8024;48.708;9.394;2022-08-18T09:33:16;11.53;;;8.93;;
15848;SDS011;8024;48.708;9.394;2022-08-18T09:35:58;11.00;;;8.03;;
15848;SDS011;8024;48.708;9.394;2022-08-18T09:38:36;9.07;;;8.27;;
15848;SDS011;8024;48.708;9.394;2022-08-18T09:41:30;10.07;;;8.53;;
15848;SDS011;8024;48.708;9.394;2022-08-18T09:44:02;9.93;;;8.77;;
15848;SDS011;8024;48.708;9.394;2022-08-18T09:49:42;9.57;;;8.67;;
15848;SDS011;8024;48.708;9.394;2022-08-18T09:58:12;10.00;;;8.63;;
15848;SDS011;8024;48.708;9.394;2022-08-18T10:00:43;10.33;;;9.33;;
15848;SDS011;8024;48.708;9.394;2022-08-18T10:03:13;9.20;;;8.50;;
15848;SDS011;8024;48.708;9.394;2022-08-18T10:06:02;10.70;;;9.63;;
15848;SDS011;8024;48.708;9.394;2022-08-18T10:11:43;9.50;;;8.60;;
15848;SDS011;8024;48.708;9.394;2022-08-18T10:14:24;9.47;;;8.57;;
15848;SDS011;8024;48.708;9.394;2022-08-18T10:17:10;9.45;;;8.65;;
15848;SDS011;8024;48.708;9.394;2022-08-18T10:19:51;9.87;;;9.07;;
15848;SDS011;8024;48.708;9.394;2022-08-18T10:22:33;10.33;;;9.27;;
15848;SDS011;8024;48.708;9.394;2022-08-18T10:25:04;9.80;;;8.98;;
15848;SDS011;8024;48.708;9.394;2022-08-18T10:27:36;9.80;;;8.90;;
15848;SDS011;8024;48.708;9.394;2022-08-18T10:36:40;11.15;;;9.00;;
15848;SDS011;8024;48.708;9.394;2022-08-18T10:39:12;10.60;;;9.57;;
15848;SDS011;8024;48.708;9.394;2022-08-18T10:41:51;9.97;;;9.10;;
15848;SDS011;8024;48.708;9.394;2022-08-18T10:44:29;9.85;;;8.90;;
15848;SDS011;8024;48.708;9.394;2022-08-18T10:46:59;8.85;;;7.95;;
15848;SDS011;8024;48.708;9.394;2022-08-18T10:49:28;9.40;;;8.50;;
15848;SDS011;8024;48.708;9.394;2022-08-18T10:52:14;10.57;;;8.88;;
15848;SDS011;8024;48.708;9.394;2022-08-18T10:58:08;9.02;;;8.35;;
15848;SDS011;8024;48.708;9.394;2022-08-18T11:01:05;8.73;;;7.90;;
15848;SDS011;8024;48.708;9.394;2022-08-18T11:03:56;9.45;;;8.57;;
15848;SDS011;8024;48.708;9.394;2022-08-18T11:06:28;7.90;;;7.28;;
15848;SDS011;8024;48.708;9.394;2022-08-18T11:09:04;8.77;;;7.93;;
15848;SDS011;8024;48.708;9.394;2022-08-18T11:11:33;9.10;;;8.40;;
15848;SDS011;8024;48.708;9.394;2022-08-18T11:14:14;10.25;;;9.25;;
15848;SDS011;8024;48.708;9.394;2022-08-18T11:17:01;11.48;;;8.57;;
15848;SDS011;8024;48.708;9.394;2022-08-18T11:19:36;9.50;;;8.60;;
15848;SDS011;8024;48.708;9.394;2022-08-18T11:22:05;8.25;;;7.65;;
15848;SDS011;8024;48.708;9.394;2022-08-18T11:24:46;8.60;;;7.88;;
15848;SDS011;8024;48.708;9.394;2022-08-18T11:27:16;7.70;;;7.10;;
15848;SDS011;8024;48.708;9.394;2022-08-18T11:29:45;8.48;;;7.68;;
15848;SDS011;8024;48.708;9.394;2022-08-18T11:32:15;7.90;;;7.30;;
15848;SDS011;8024;48.708;9.394;2022-08-18T11:34:48;7.90;;;7.30;;
15848;SDS011;8024;48.708;9.394;2022-08-18T11:37:23;8.38;;;7.78;;
15848;SDS011;8024;48.708;9.394;2022-08-18T11:39:55;8.50;;;7.90;;
15848;SDS011;8024;48.708;9.394;2022-08-18T11:42:27;8.18;;;7.43;;
15848;SDS011;8024;48.708;9.394;2022-08-18T11:45:01;8.45;;;7.80;;
15848;SDS011;8024;48.708;9.394;2022-08-18T11:47:32;7.93;;;7.32;;
15848;SDS011;8024;48.708;9.394;2022-08-18T11:50:06;7.90;;;7.30;;
15848;SDS011;8024;48.708;9.394;2022-08-18T11:52:45;7.82;;;7.13;;
15848;SDS011;8024;48.708;9.394;2022-08-18T11:55:18;7.93;;;7.22;;
15848;SDS011;8024;48.708;9.394;2022-08-18T11:57:53;8.70;;;7.82;;
15848;SDS011;8024;48.708;9.394;2022-08-18T12:00:41;8.18;;;7.47;;
15848;SDS011;8024;48.708;9.394;2022-08-18T12:03:22;8.75;;;8.02;;
15848;SDS011;8024;48.708;9.394;2022-08-18T12:05:56;8.48;;;7.78;;
15848;SDS011;8024;48.708;9.394;2022-08-18T12:08:30;9.48;;;8.63;;
15848;SDS011;8024;48.708;9.394;2022-08-18T12:11:12;8.55;;;7.53;;
15848;SDS011;8024;48.708;9.394;2022-08-18T12:13:43;9.00;;;7.97;;
15848;SDS011;8024;48.708;9.394;2022-08-18T12:16:13;9.02;;;8.25;;
15848;SDS011;8024;48.708;9.394;2022-08-18T12:18:43;8.75;;;7.80;;
15848;SDS011;8024;48.708;9.394;2022-08-18T12:21:10;9.07;;;8.27;;
15848;SDS011;8024;48.708;9.394;2022-08-18T12:23:38;9.20;;;8.40;;
15848;SDS011;8024;48.708;9.394;2022-08-18T12:26:10;8.05;;;7.30;;
15848;SDS011;8024;48.708;9.394;2022-08-18T12:28:38;8.07;;;7.38;;
15848;SDS011;8024;48.708;9.394;2022-08-18T12:31:05;9.00;;;8.20;;
15848;SDS011;8024;48.708;9.394;2022-08-18T12:33:33;9.27;;;8.40;;
15848;SDS011;8024;48.708;9.394;2022-08-18T12:36:00;9.25;;;8.55;;
15848;SDS011;8024;48.708;9.394;2022-08-18T12:38:28;8.82;;;8.00;;
15848;SDS011;8024;48.708;9.394;2022-08-18T12:40:56;7.50;;;7.00;;
15848;SDS011;8024;48.708;9.394;2022-08-18T12:43:25;7.43;;;6.93;;
15848;SDS011;8024;48.708;9.394;2022-08-18T12:45:52;8.13;;;7.60;;
15848;SDS011;8024;48.708;9.394;2022-08-18T12:48:19;7.05;;;6.55;;
15848;SDS011;8024;48.708;9.394;2022-08-18T12:50:46;6.82;;;6.32;;
15848;SDS011;8024;48.708;9.394;2022-08-18T12:53:13;7.65;;;7.03;;
15848;SDS011;8024;48.708;9.394;2022-08-18T12:55:42;8.20;;;7.40;;
15848;SDS011;8024;48.708;9.394;2022-08-18T12:58:09;7.72;;;7.00;;
15848;SDS011;8024;48.708;9.394;2022-08-18T13:00:38;7.43;;;6.93;;
15848;SDS011;8024;48.708;9.394;2022-08-18T13:03:05;7.53;;;6.93;;
15848;SDS011;8024;48.708;9.394;2022-08-18T13:05:33;6.68;;;6.18;;
15848;SDS011;8024;48.708;9.394;2022-08-18T13:08:02;6.68;;;6.10;;
15848;SDS011;8024;48.708;9.394;2022-08-18T13:10:31;6.90;;;6.30;;
15848;SDS011;8024;48.708;9.394;2022-08-18T13:12:59;6.53;;;5.93;;
15848;SDS011;8024;48.708;9.394;2022-08-18T13:15:26;6.32;;;5.90;;
15848;SDS011;8024;48.708;9.394;2022-08-18T13:17:55;6.20;;;5.80;;
15848;SDS011;8024;48.708;9.394;2022-08-18T13:20:22;6.78;;;6.28;;
15848;SDS011;8024;48.708;9.394;2022-08-18T13:22:49;7.47;;;6.13;;
15848;SDS011;8024;48.708;9.394;2022-08-18T13:25:17;7.10;;;6.60;;
15848;SDS011;8024;48.708;9.394;2022-08-18T13:27:45;7.10;;;6.50;;
15848;SDS011;8024;48.708;9.394;2022-08-18T13:30:16;7.38;;;6.80;;
15848;SDS011;8024;48.708;9.394;2022-08-18T13:32:43;6.90;;;6.30;;
15848;SDS011;8024;48.708;9.394;2022-08-18T13:35:11;6.22;;;5.82;;
15848;SDS011;8024;48.708;9.394;2022-08-18T13:37:39;7.63;;;7.03;;
15848;SDS011;8024;48.708;9.394;2022-08-18T13:40:06;6.85;;;6.35;;
15848;SDS011;8024;48.708;9.394;2022-08-18T13:42:40;6.40;;;5.90;;
15848;SDS011;8024;48.708;9.394;2022-08-18T13:45:10;7.15;;;6.30;;
15848;SDS011;8024;48.708;9.394;2022-08-18T13:47:38;7.15;;;6.40;;
15848;SDS011;8024;48.708;9.394;2022-08-18T13:50:06;6.60;;;6.20;;
15848;SDS011;8024;48.708;9.394;2022-08-18T13:52:36;8.43;;;7.53;;
15848;SDS011;8024;48.708;9.394;2022-08-18T13:55:06;7.45;;;6.72;;
15848;SDS011;8024;48.708;9.394;2022-08-18T13:57:36;7.75;;;6.95;;
15848;SDS011;8024;48.708;9.394;2022-08-18T14:00:05;7.35;;;6.78;;
15848;SDS011;8024;48.708;9.394;2022-08-18T14:02:35;8.35;;;7.47;;
15848;SDS011;8024;48.708;9.394;2022-08-18T14:05:04;7.10;;;6.60;;
15848;SDS011;8024;48.708;9.394;2022-08-18T14:07:33;6.20;;;5.70;;
15848;SDS011;8024;48.708;9.394;2022-08-18T14:10:02;6.90;;;6.35;;
15848;SDS011;8024;48.708;9.394;2022-08-18T14:12:33;7.00;;;6.30;;
15848;SDS011;8024;48.708;9.394;2022-08-18T14:15:02;6.80;;;6.30;;
15848;SDS011;8024;48.708;9.394;2022-08-18T14:17:32;8.02;;;7.15;;
15848;SDS011;8024;48.708;9.394;2022-08-18T14:19:59;7.03;;;6.57;;
15848;SDS011;8024;48.708;9.394;2022-08-18T14:22:44;7.32;;;6.72;;
15848;SDS011;8024;48.708;9.394;2022-08-18T14:25:30;6.70;;;6.30;;
15848;SDS011;8024;48.708;9.394;2022-08-18T14:28:14;7.22;;;6.60;;
15848;SDS011;8024;48.708;9.394;2022-08-18T14:30:42;7.35;;;6.80;;
15848;SDS011;8024;48.708;9.394;2022-08-18T14:33:16;7.20;;;6.68;;
15848;SDS011;8024;48.708;9.394;2022-08-18T14:35:46;6.82;;;6.43;;
15848;SDS011;8024;48.708;9.394;2022-08-18T14:38:14;7.70;;;6.93;;
15848;SDS011;8024;48.708;9.394;2022-08-18T14:40:43;7.22;;;6.53;;
15848;SDS011;8024;48.708;9.394;2022-08-18T14:43:12;6.88;;;6.30;;
15848;SDS011;8024;48.708;9.394;2022-08-18T14:45:41;7.18;;;6.60;;
15848;SDS011;8024;48.708;9.394;2022-08-18T14:48:12;7.20;;;6.50;;
15848;SDS011;8024;48.708;9.394;2022-08-18T14:50:41;6.97;;;6.43;;
15848;SDS011;8024;48.708;9.394;2022-08-18T14:53:12;6.72;;;6.22;;
15848;SDS011;8024;48.708;9.394;2022-08-18T14:55:40;6.55;;;6.15;;
15848;SDS011;8024;48.708;9.394;2022-08-18T14:58:08;6.90;;;6.40;;
15848;SDS011;8024;48.708;9.394;2022-08-18T15:00:35;5.90;;;5.50;;
15848;SDS011;8024;48.708;9.394;2022-08-18T15:03:03;6.85;;;6.28;;
15848;SDS011;8024;48.708;9.394;2022-08-18T15:05:31;6.70;;;6.10;;
15848;SDS011;8024;48.708;9.394;2022-08-18T15:07:59;6.22;;;5.82;;
15848;SDS011;8024;48.708;9.394;2022-08-18T15:10:28;7.47;;;6.80;;
15848;SDS011;8024;48.708;9.394;2022-08-18T15:12:56;6.13;;;5.72;;
15848;SDS011;8024;48.708;9.394;2022-08-18T15:15:26;6.45;;;5.82;;
15848;SDS011;8024;48.708;9.394;2022-08-18T15:17:54;5.45;;;5.07;;
15848;SDS011;8024;48.708;9.394;2022-08-18T15:20:22;6.88;;;6.28;;
15848;SDS011;8024;48.708;9.394;2022-08-18T15:22:50;6.47;;;6.07;;
15848;SDS011;8024;48.708;9.394;2022-08-18T15:25:35;5.47;;;5.05;;
15848;SDS011;8024;48.708;9.394;2022-08-18T15:28:09;6.20;;;5.80;;
15848;SDS011;8024;48.708;9.394;2022-08-18T15:30:39;6.32;;;5.82;;
15848;SDS011;8024;48.708;9.394;2022-08-18T15:33:08;7.15;;;6.65;;
15848;SDS011;8024;48.708;9.394;2022-08-18T15:35:35;6.50;;;6.00;;
15848;SDS011;8024;48.708;9.394;2022-08-18T15:38:04;6.55;;;6.05;;
15848;SDS011;8024;48.708;9.394;2022-08-18T15:40:32;5.85;;;5.30;;
15848;SDS011;8024;48.708;9.394;2022-08-18T15:42:59;5.97;;;5.47;;
15848;SDS011;8024;48.708;9.394;2022-08-18T15:45:33;6.50;;;6.00;;
15848;SDS011;8024;48.708;9.394;2022-08-18T15:48:05;6.85;;;6.25;;
15848;SDS011;8024;48.708;9.394;2022-08-18T15:50:32;7.10;;;6.50;;
15848;SDS011;8024;48.708;9.394;2022-08-18T15:53:00;5.95;;;5.55;;